createdAt,value
2019-04-28T00:01:31.060Z,77.70
2019-04-28T00:04:01.700Z,77.90
2019-04-28T00:06:32.107Z,78.20
2019-04-28T00:09:01.867Z,78.20
2019-04-28T00:11:33.128Z,78.40
2019-04-28T00:14:02.867Z,78.40
2019-04-28T00:16:33.306Z,77.60
2019-04-28T00:19:03.939Z,76.60
2019-04-28T00:21:45.517Z,76.30
2019-04-28T00:24:52.307Z,76.20
2019-04-28T00:27:22.287Z,76.30
2019-04-28T00:29:52.069Z,76.80
2019-04-28T00:32:21.828Z,76.80
2019-04-28T00:34:51.663Z,76.60
2019-04-28T00:37:26.663Z,76.00
2019-04-28T00:39:56.247Z,75.60
2019-04-28T00:42:25.936Z,75.70
2019-04-28T00:44:56.417Z,75.20
2019-04-28T00:47:26.134Z,75.20
2019-04-28T00:49:55.797Z,75.00
2019-04-28T00:52:25.508Z,74.70
2019-04-28T00:54:55.027Z,74.60
2019-04-28T00:57:24.627Z,74.70
2019-04-28T00:59:58.420Z,74.70
2019-04-28T01:02:42.279Z,74.60
2019-04-28T01:05:12.015Z,75.60
2019-04-28T01:07:41.627Z,74.50
2019-04-28T01:10:11.924Z,74.60
2019-04-28T01:12:41.571Z,74.90
2019-04-28T01:15:20.090Z,75.00
2019-04-28T01:18:05.045Z,74.80
2019-04-28T01:20:34.659Z,74.80
2019-04-28T01:23:04.399Z,75.10
2019-04-28T01:25:33.999Z,75.20
2019-04-28T01:28:03.548Z,75.30
2019-04-28T01:30:50.911Z,75.30
2019-04-28T01:33:32.831Z,75.40
2019-04-28T01:36:03.515Z,75.20
2019-04-28T01:38:33.149Z,75.40
2019-04-28T01:41:02.705Z,75.40
2019-04-28T01:43:32.263Z,74.80
2019-04-28T01:46:01.879Z,75.00
2019-04-28T01:48:31.625Z,74.70
2019-04-28T01:51:01.223Z,75.20
2019-04-28T01:53:30.956Z,75.10
2019-04-28T01:56:00.716Z,75.20
2019-04-28T01:58:30.265Z,75.10
2019-04-28T02:00:59.927Z,75.30
2019-04-28T02:03:30.723Z,75.00
2019-04-28T02:06:00.739Z,74.90
2019-04-28T02:08:30.394Z,75.10
2019-04-28T02:11:00.331Z,75.10
2019-04-28T02:13:30.028Z,75.20
2019-04-28T02:16:00.120Z,75.30
2019-04-28T02:18:30.060Z,74.80
2019-04-28T02:21:07.151Z,74.70
2019-04-28T02:23:37.416Z,74.90
2019-04-28T02:26:06.964Z,74.80
2019-04-28T02:28:36.608Z,74.70
2019-04-28T02:31:06.215Z,74.90
2019-04-28T02:33:35.809Z,74.90
2019-04-28T02:36:08.685Z,75.60
2019-04-28T02:38:36.629Z,75.20
2019-04-28T02:41:06.203Z,75.20
2019-04-28T02:43:35.752Z,75.40
2019-04-28T02:46:05.361Z,75.40
2019-04-28T02:48:35.241Z,75.80
2019-04-28T02:51:11.197Z,75.80
2019-04-28T02:53:45.716Z,75.20
2019-04-28T02:56:15.419Z,74.90
2019-04-28T02:58:45.010Z,74.10
2019-04-28T03:01:24.887Z,73.80
2019-04-28T03:03:45.869Z,73.20
2019-04-28T03:06:15.402Z,73.20
2019-04-28T03:08:44.972Z,72.70
2019-04-28T03:11:14.555Z,72.20
2019-04-28T03:13:44.149Z,72.10
2019-04-28T03:16:13.842Z,72.10
2019-04-28T03:18:43.392Z,71.70
2019-04-28T03:21:13.975Z,71.70
2019-04-28T03:23:43.518Z,71.30
2019-04-28T03:26:44.081Z,71.00
2019-04-28T03:29:30.498Z,71.00
2019-04-28T03:32:39.970Z,70.60
2019-04-28T03:35:03.159Z,70.40
2019-04-28T03:37:31.572Z,70.70
2019-04-28T03:40:01.339Z,70.50
2019-04-28T03:42:32.096Z,71.10
2019-04-28T03:45:03.332Z,70.90
2019-04-28T03:47:32.995Z,70.50
2019-04-28T03:50:02.550Z,70.40
2019-04-28T03:52:32.125Z,70.40
2019-04-28T03:55:01.763Z,70.60
2019-04-28T03:57:31.641Z,70.60
2019-04-28T04:00:01.797Z,71.00
2019-04-28T04:02:31.552Z,71.30
2019-04-28T04:05:03.896Z,71.20
2019-04-28T04:07:32.428Z,71.30
2019-04-28T04:10:13.840Z,70.80
2019-04-28T04:13:07.603Z,70.70
2019-04-28T04:15:54.727Z,70.90
2019-04-28T04:18:30.887Z,70.90
2019-04-28T04:21:00.782Z,71.00
2019-04-28T04:23:31.030Z,71.10
2019-04-28T04:26:02.778Z,71.10
2019-04-28T04:28:32.396Z,71.00
2019-04-28T04:31:03.140Z,71.30
2019-04-28T04:33:32.100Z,71.60
2019-04-28T04:36:02.867Z,72.00
2019-04-28T04:38:32.642Z,72.00
2019-04-28T04:41:02.378Z,71.80
2019-04-28T04:43:32.184Z,71.90
2019-04-28T04:46:17.419Z,71.80
2019-04-28T04:48:47.014Z,71.20
2019-04-28T04:51:16.607Z,71.20
2019-04-28T04:53:50.726Z,71.20
2019-04-28T04:56:21.152Z,71.40
2019-04-28T04:58:50.997Z,71.50
2019-04-28T05:01:40.930Z,71.00
2019-04-28T05:04:19.683Z,71.00
2019-04-28T05:06:49.752Z,70.70
2019-04-28T05:09:19.688Z,71.30
2019-04-28T05:11:49.972Z,70.90
2019-04-28T05:14:20.029Z,70.60
2019-04-28T05:16:49.840Z,71.10
2019-04-28T05:19:20.000Z,71.30
2019-04-28T05:21:50.803Z,71.30
2019-04-28T05:24:30.372Z,71.00
2019-04-28T05:27:01.019Z,70.90
2019-04-28T05:29:30.817Z,70.30
2019-04-28T05:32:03.262Z,69.60
2019-04-28T05:34:31.819Z,68.90
2019-04-28T05:37:01.434Z,68.20
2019-04-28T05:39:31.043Z,68.20
2019-04-28T05:42:01.028Z,67.90
2019-04-28T05:44:32.082Z,68.00
2019-04-28T05:47:01.783Z,68.00
2019-04-28T05:49:51.530Z,67.60
2019-04-28T05:52:40.395Z,67.60
2019-04-28T05:55:17.532Z,67.30
2019-04-28T05:57:56.291Z,67.30
2019-04-28T06:00:43.476Z,66.50
2019-04-28T06:03:14.031Z,66.70
2019-04-28T06:05:44.745Z,65.00
2019-04-28T06:08:30.340Z,65.00
2019-04-28T06:11:02.043Z,64.70
2019-04-28T06:13:31.651Z,64.30
2019-04-28T06:16:02.164Z,64.40
2019-04-28T06:18:31.703Z,64.30
2019-04-28T06:21:01.273Z,63.70
2019-04-28T06:23:30.798Z,63.30
2019-04-28T06:26:00.407Z,62.60
2019-04-28T06:28:30.028Z,62.50
2019-04-28T06:31:01.981Z,62.60
2019-04-28T06:33:31.827Z,62.70
2019-04-28T06:36:01.502Z,61.40
2019-04-28T06:38:31.461Z,60.80
2019-04-28T06:41:01.051Z,60.70
2019-04-28T06:43:30.832Z,60.50
2019-04-28T06:46:00.535Z,60.30
2019-04-28T06:48:30.067Z,60.50
2019-04-28T06:50:59.603Z,60.30
2019-04-28T06:53:29.176Z,61.20
2019-04-28T06:55:59.053Z,60.90
2019-04-28T06:58:28.738Z,60.80
2019-04-28T07:00:58.309Z,61.30
2019-04-28T07:03:28.192Z,61.30
2019-04-28T07:05:58.474Z,61.60
2019-04-28T07:08:28.573Z,61.60
2019-04-28T07:10:58.094Z,61.60
2019-04-28T07:13:28.120Z,62.10
2019-04-28T07:15:58.137Z,62.10
2019-04-28T07:18:27.962Z,62.20
2019-04-28T07:21:16.788Z,62.20
2019-04-28T07:23:47.664Z,62.60
2019-04-28T07:26:17.602Z,62.80
2019-04-28T07:28:49.098Z,62.70
2019-04-28T07:31:21.022Z,62.50
2019-04-28T07:33:50.794Z,62.90
2019-04-28T07:36:20.368Z,62.40
2019-04-28T07:38:49.962Z,62.50
2019-04-28T07:41:19.524Z,62.30
2019-04-28T07:43:49.238Z,61.90
2019-04-28T07:46:18.759Z,62.40
2019-04-28T07:48:48.311Z,62.10
2019-04-28T07:51:18.741Z,62.00
2019-04-28T07:53:55.223Z,62.30
2019-04-28T07:56:25.035Z,62.30
2019-04-28T07:58:54.987Z,61.90
2019-04-28T08:01:24.736Z,61.90
2019-04-28T08:03:57.432Z,61.40
2019-04-28T08:06:27.105Z,59.90
2019-04-28T08:08:56.059Z,59.30
2019-04-28T08:11:25.838Z,59.50
2019-04-28T08:13:55.644Z,59.30
2019-04-28T08:16:25.752Z,59.00
2019-04-28T08:18:55.856Z,59.20
2019-04-28T08:21:25.796Z,59.50
2019-04-28T08:23:55.835Z,59.20
2019-04-28T08:26:25.929Z,59.20
2019-04-28T08:28:55.838Z,58.70
2019-04-28T08:31:29.964Z,57.90
2019-04-28T08:34:03.047Z,57.00
2019-04-28T08:36:33.159Z,58.00
2019-04-28T08:39:04.730Z,58.00
2019-04-28T08:41:35.044Z,56.70
2019-04-28T08:44:04.867Z,57.10
2019-04-28T08:46:34.764Z,58.10
2019-04-28T08:49:04.687Z,58.80
2019-04-28T08:51:34.595Z,58.50
2019-04-28T08:54:04.418Z,57.70
2019-04-28T08:56:34.653Z,58.20
2019-04-28T08:59:05.030Z,56.80
2019-04-28T09:01:35.117Z,57.20
2019-04-28T09:04:14.805Z,55.50
2019-04-28T09:06:36.516Z,54.60
2019-04-28T09:09:09.707Z,55.10
2019-04-28T09:11:39.750Z,55.20
2019-04-28T09:14:09.601Z,54.80
2019-04-28T09:16:39.686Z,55.00
2019-04-28T09:19:09.497Z,55.10
2019-04-28T09:21:39.415Z,55.40
2019-04-28T09:24:09.336Z,55.40
2019-04-28T09:26:39.034Z,53.80
2019-04-28T09:29:08.947Z,52.80
2019-04-28T09:31:38.663Z,53.90
2019-04-28T09:34:08.634Z,52.60
2019-04-28T09:36:38.422Z,51.70
2019-04-28T09:39:10.351Z,52.10
2019-04-28T09:41:43.543Z,53.00
2019-04-28T09:44:17.861Z,52.80
2019-04-28T09:46:48.495Z,52.80
2019-04-28T09:49:18.505Z,53.80
2019-04-28T09:51:48.425Z,53.70
2019-04-28T09:54:18.251Z,54.00
2019-04-28T09:56:56.369Z,53.20
2019-04-28T09:59:19.801Z,52.60
2019-04-28T10:01:49.786Z,52.50
2019-04-28T10:04:19.703Z,51.90
2019-04-28T10:06:49.570Z,51.40
2019-04-28T10:09:19.567Z,51.30
2019-04-28T10:11:55.548Z,51.20
2019-04-28T10:14:22.042Z,50.50
2019-04-28T10:16:52.194Z,51.00
2019-04-28T10:19:21.984Z,51.40
2019-04-28T10:21:51.804Z,51.10
2019-04-28T10:24:21.639Z,50.70
2019-04-28T10:26:51.676Z,50.80
2019-04-28T10:29:21.656Z,50.60
2019-04-28T10:31:51.667Z,50.20
2019-04-28T10:34:21.561Z,50.20
2019-04-28T10:36:51.374Z,49.10
2019-04-28T10:39:35.693Z,48.60
2019-04-28T10:42:05.872Z,48.40
2019-04-28T10:44:38.920Z,48.80
2019-04-28T10:47:08.755Z,49.10
2019-04-28T10:49:38.523Z,49.20
2019-04-28T10:52:08.397Z,49.50
2019-04-28T10:54:38.432Z,49.10
2019-04-28T10:57:08.291Z,49.50
2019-04-28T10:59:38.250Z,50.10
2019-04-28T11:02:08.056Z,49.20
2019-04-28T11:05:08.695Z,49.70
2019-04-28T11:07:34.505Z,49.40
2019-04-28T11:10:23.336Z,49.30
2019-04-28T11:12:53.073Z,49.80
2019-04-28T11:15:28.217Z,50.20
2019-04-28T11:17:57.963Z,48.90
2019-04-28T11:20:27.846Z,48.70
2019-04-28T11:22:57.845Z,48.90
2019-04-28T11:25:28.894Z,48.80
2019-04-28T11:27:57.730Z,49.20
2019-04-28T11:30:29.340Z,50.90
2019-04-28T11:33:08.193Z,49.80
2019-04-28T11:35:38.127Z,49.90
2019-04-28T11:38:07.818Z,49.90
2019-04-28T11:40:37.467Z,49.30
2019-04-28T11:43:07.171Z,48.30
2019-04-28T11:45:36.764Z,48.60
2019-04-28T11:48:06.784Z,50.20
2019-04-28T11:50:36.369Z,49.30
2019-04-28T11:53:06.145Z,50.00
2019-04-28T11:55:35.941Z,49.80
2019-04-28T11:58:05.832Z,49.60
2019-04-28T12:00:35.767Z,50.20
2019-04-28T12:03:05.477Z,48.00
2019-04-28T12:05:41.180Z,47.20
2019-04-28T12:08:11.121Z,46.50
2019-04-28T12:11:06.009Z,47.30
2019-04-28T12:14:09.949Z,48.30
2019-04-28T12:17:01.143Z,47.30
2019-04-28T12:19:56.321Z,46.50
2019-04-28T12:22:26.288Z,46.00
2019-04-28T12:24:56.925Z,46.00
2019-04-28T12:27:33.498Z,45.40
2019-04-28T12:30:03.483Z,45.80
2019-04-28T12:32:34.345Z,46.20
2019-04-28T12:35:04.497Z,46.40
2019-04-28T12:37:36.135Z,46.10
2019-04-28T12:40:05.961Z,45.80
2019-04-28T12:42:35.747Z,45.40
2019-04-28T12:45:05.855Z,46.00
2019-04-28T12:47:35.534Z,45.80
2019-04-28T12:50:37.565Z,45.40
2019-04-28T12:53:10.882Z,46.50
2019-04-28T12:55:40.605Z,47.20
2019-04-28T12:58:10.219Z,47.30
2019-04-28T13:01:00.056Z,47.40
2019-04-28T13:03:36.129Z,47.70
2019-04-28T13:06:08.339Z,46.40
2019-04-28T13:08:42.220Z,46.30
2019-04-28T13:11:11.933Z,45.70
2019-04-28T13:13:46.934Z,45.50
2019-04-28T13:16:18.024Z,45.80
2019-04-28T13:18:46.907Z,46.90
2019-04-28T13:21:16.663Z,47.30
2019-04-28T13:23:46.600Z,47.40
2019-04-28T13:26:17.376Z,46.90
2019-04-28T13:28:47.035Z,46.30
2019-04-28T13:31:16.599Z,46.50
2019-04-28T13:33:55.828Z,47.00
2019-04-28T13:36:18.445Z,46.80
2019-04-28T13:38:48.095Z,45.70
2019-04-28T13:41:19.851Z,46.20
2019-04-28T13:43:50.424Z,46.20
2019-04-28T13:46:20.185Z,46.50
2019-04-28T13:48:50.246Z,47.20
2019-04-28T13:51:19.981Z,47.90
2019-04-28T13:53:50.613Z,48.00
2019-04-28T13:56:24.358Z,47.80
2019-04-28T13:59:08.265Z,48.10
2019-04-28T14:01:58.368Z,48.40
2019-04-28T14:04:56.869Z,48.40
2019-04-28T14:07:27.688Z,47.90
2019-04-28T14:09:57.530Z,46.90
2019-04-28T14:12:28.836Z,47.00
2019-04-28T14:14:58.651Z,46.90
2019-04-28T14:17:30.428Z,46.90
2019-04-28T14:20:01.605Z,47.90
2019-04-28T14:22:31.863Z,48.30
2019-04-28T14:25:02.271Z,48.30
2019-04-28T14:27:32.958Z,47.80
2019-04-28T14:30:04.534Z,47.80
2019-04-28T14:33:04.034Z,47.90
2019-04-28T14:39:15.503Z,45.50
2019-04-28T14:41:46.206Z,46.40
2019-04-28T14:44:17.645Z,47.20
2019-04-28T14:46:47.963Z,48.40
2019-04-28T14:49:17.878Z,49.50
2019-04-28T14:51:47.756Z,50.10
2019-04-28T14:54:17.839Z,51.80
2019-04-28T14:56:48.916Z,50.80
2019-04-28T14:59:19.212Z,50.50
2019-04-28T15:02:08.080Z,50.40
2019-04-28T15:04:56.554Z,49.70
2019-04-28T15:07:43.608Z,49.70
2019-04-28T15:10:29.652Z,48.50
2019-04-28T15:12:59.671Z,48.10
2019-04-28T15:15:29.287Z,48.30
2019-04-28T15:18:00.070Z,47.70
2019-04-28T15:20:29.812Z,47.50
2019-04-28T15:23:05.317Z,48.00
2019-04-28T15:26:00.646Z,48.60
2019-04-28T15:28:30.262Z,49.40
2019-04-28T15:30:59.875Z,50.20
2019-04-28T15:33:29.968Z,50.10
2019-04-28T15:35:59.661Z,47.90
2019-04-28T15:38:29.389Z,48.60
2019-04-28T15:40:59.117Z,48.60
2019-04-28T15:43:28.662Z,48.10
2019-04-28T15:45:58.260Z,47.60
2019-04-28T15:48:27.803Z,47.30
2019-04-28T15:50:58.507Z,47.40
2019-04-28T15:53:29.114Z,47.60
2019-04-28T15:56:04.658Z,47.90
2019-04-28T15:58:38.089Z,47.70
2019-04-28T16:01:07.764Z,48.00
2019-04-28T16:03:38.436Z,48.40
2019-04-28T16:06:08.117Z,48.50
2019-04-28T16:08:37.695Z,48.60
2019-04-28T16:11:07.349Z,48.30
2019-04-28T16:13:37.126Z,49.50
2019-04-28T16:16:06.727Z,48.80
2019-04-28T16:18:36.363Z,48.30
2019-04-28T16:21:05.915Z,47.60
2019-04-28T16:23:36.484Z,48.20
2019-04-28T16:26:06.068Z,47.60
2019-04-28T16:28:35.776Z,47.20
2019-04-28T16:31:05.377Z,46.90
2019-04-28T16:33:35.152Z,46.30
2019-04-28T16:36:04.810Z,46.90
2019-04-28T16:38:34.584Z,46.80
2019-04-28T16:41:04.175Z,46.90
2019-04-28T16:43:34.112Z,47.20
2019-04-28T16:46:03.764Z,47.90
2019-04-28T16:48:33.609Z,48.60
2019-04-28T16:51:04.340Z,49.10
2019-04-28T16:53:34.013Z,49.50
2019-04-28T16:56:19.604Z,49.20
2019-04-28T16:59:27.023Z,49.90
2019-04-28T17:02:00.448Z,52.70
2019-04-28T17:04:30.039Z,54.00
2019-04-28T17:06:59.975Z,54.70
2019-04-28T17:09:53.121Z,55.50
2019-04-28T17:12:26.970Z,56.00
2019-04-28T17:15:16.305Z,56.90
2019-04-28T17:17:46.184Z,57.40
2019-04-28T17:20:18.072Z,58.10
2019-04-28T17:22:47.688Z,58.20
2019-04-28T17:25:17.390Z,58.60
2019-04-28T17:27:47.284Z,58.80
2019-04-28T17:30:17.291Z,58.80
2019-04-28T17:32:47.957Z,58.60
2019-04-28T17:35:18.322Z,58.60
2019-04-28T17:37:48.093Z,58.50
2019-04-28T17:40:20.410Z,58.70
2019-04-28T17:42:59.268Z,59.00
2019-04-28T17:45:32.282Z,58.80
2019-04-28T17:48:23.681Z,58.90
2019-04-28T17:50:53.822Z,59.20
2019-04-28T17:53:23.693Z,59.50
2019-04-28T17:55:53.561Z,59.60
2019-04-28T17:58:23.416Z,59.60
2019-04-28T18:04:37.351Z,59.50
2019-04-28T18:07:12.159Z,59.50
2019-04-28T18:09:42.166Z,59.80
2019-04-28T18:12:12.952Z,60.50
2019-04-28T18:14:44.980Z,60.70
2019-04-28T18:17:50.689Z,60.60
2019-04-28T18:20:21.621Z,60.20
2019-04-28T18:22:51.339Z,60.60
2019-04-28T18:25:24.733Z,60.90
2019-04-28T18:27:54.325Z,61.00
2019-04-28T18:30:26.071Z,61.10
2019-04-28T18:33:15.290Z,61.20
2019-04-28T18:35:48.002Z,61.50
2019-04-28T18:38:35.304Z,61.20
2019-04-28T18:41:25.191Z,61.40
2019-04-28T18:44:04.244Z,61.60
2019-04-28T18:46:36.012Z,61.80
2019-04-28T18:49:08.224Z,61.70
2019-04-28T18:51:38.444Z,62.20
2019-04-28T18:54:11.120Z,62.00
2019-04-28T18:56:41.978Z,61.80
2019-04-28T18:59:12.398Z,62.40
2019-04-28T19:01:48.591Z,62.40
2019-04-28T19:04:19.229Z,62.50
2019-04-28T19:06:49.714Z,62.70
2019-04-28T19:09:38.645Z,62.50
2019-04-28T19:12:16.621Z,62.70
2019-04-28T19:15:18.541Z,63.10
2019-04-28T19:17:59.417Z,63.30
2019-04-28T19:20:29.481Z,63.50
2019-04-28T19:22:59.573Z,63.70
2019-04-28T19:25:29.513Z,64.00
2019-04-28T19:28:00.943Z,64.40
2019-04-28T19:30:31.045Z,64.40
2019-04-28T19:33:01.960Z,64.40
2019-04-28T19:35:31.277Z,64.70
2019-04-28T19:38:03.525Z,65.20
2019-04-28T19:40:34.725Z,65.10
2019-04-28T19:43:05.063Z,65.00
2019-04-28T19:45:37.760Z,64.90
2019-04-28T19:48:07.610Z,64.80
2019-04-28T19:50:37.312Z,64.60
2019-04-28T19:53:07.011Z,65.10
2019-04-28T19:55:41.271Z,65.30
2019-04-28T19:58:17.009Z,65.40
2019-04-28T20:01:06.031Z,66.00
2019-04-28T20:03:43.327Z,65.80
2019-04-28T20:06:17.467Z,65.70
2019-04-28T20:08:48.168Z,65.70
2019-04-28T20:11:19.860Z,65.80
2019-04-28T20:13:49.471Z,66.00
2019-04-28T20:16:20.198Z,66.50
2019-04-28T20:18:50.272Z,67.10
2019-04-28T20:21:21.414Z,67.20
2019-04-28T20:23:50.981Z,67.00
2019-04-28T20:26:21.081Z,67.30
2019-04-28T20:28:51.070Z,67.50
2019-04-28T20:31:20.980Z,68.00
2019-04-28T20:33:52.355Z,68.10
2019-04-28T20:36:33.082Z,67.90
2019-04-28T20:39:07.743Z,68.30
2019-04-28T20:41:39.199Z,68.10
2019-04-28T20:44:14.857Z,68.20
2019-04-28T20:46:44.832Z,68.00
2019-04-28T20:49:16.674Z,68.10
2019-04-28T20:51:46.539Z,68.10
2019-04-28T20:54:16.072Z,68.20
2019-04-28T20:56:45.967Z,68.00
2019-04-28T21:02:22.699Z,68.20
2019-04-28T21:04:52.286Z,68.70
2019-04-28T21:07:22.167Z,68.70
2019-04-28T21:09:51.755Z,68.70
2019-04-28T21:12:21.937Z,68.40
2019-04-28T21:14:51.739Z,67.90
2019-04-28T21:17:21.507Z,68.00
2019-04-28T21:19:51.332Z,67.80
2019-04-28T21:22:27.192Z,67.90
2019-04-28T21:24:57.093Z,67.60
2019-04-28T21:27:26.800Z,67.70
2019-04-28T21:29:56.457Z,68.10
2019-04-28T21:32:26.119Z,68.70
2019-04-28T21:34:56.000Z,68.50
2019-04-28T21:37:25.630Z,68.50
2019-04-28T21:39:55.378Z,69.50
2019-04-28T21:42:27.885Z,68.90
2019-04-28T21:45:25.655Z,68.30
2019-04-28T21:47:55.657Z,68.20
2019-04-28T21:50:25.715Z,68.60
2019-04-28T21:52:55.721Z,68.40
2019-04-28T21:55:25.822Z,68.70
2019-04-28T21:57:55.534Z,68.60
2019-04-28T22:00:29.754Z,68.60
2019-04-28T22:03:17.713Z,69.00
2019-04-28T22:05:47.849Z,68.60
2019-04-28T22:08:18.192Z,68.50
2019-04-28T22:10:48.424Z,68.50
2019-04-28T22:13:18.471Z,68.70
2019-04-28T22:15:48.606Z,68.20
2019-04-28T22:18:18.404Z,68.10
2019-04-28T22:20:48.325Z,68.10
2019-04-28T22:23:22.904Z,68.20
2019-04-28T22:25:53.201Z,68.10
2019-04-28T22:28:23.308Z,68.10
2019-04-28T22:30:54.667Z,68.00
2019-04-28T22:33:24.408Z,68.00
2019-04-28T22:35:54.281Z,68.10
2019-04-28T22:38:24.250Z,68.20
2019-04-28T22:40:53.987Z,68.10
2019-04-28T22:43:23.615Z,67.80
2019-04-28T22:46:10.008Z,68.00
2019-04-28T22:48:39.899Z,67.90
2019-04-28T22:51:09.840Z,68.00
2019-04-28T22:53:39.855Z,68.00
2019-04-28T22:56:27.255Z,68.40
2019-04-28T22:59:04.602Z,68.30
2019-04-28T23:01:37.835Z,68.50
2019-04-28T23:04:29.633Z,68.90
2019-04-28T23:07:02.112Z,68.60
2019-04-28T23:09:31.778Z,69.10
2019-04-28T23:12:01.653Z,69.70
2019-04-28T23:14:31.383Z,69.60
2019-04-28T23:17:01.075Z,69.20
2019-04-28T23:19:33.490Z,69.10
2019-04-28T23:22:10.693Z,69.60
2019-04-28T23:24:40.283Z,69.80
2019-04-28T23:27:09.845Z,70.10
2019-04-28T23:29:42.749Z,70.30
2019-04-28T23:32:12.531Z,70.30
2019-04-28T23:34:42.120Z,70.30
2019-04-28T23:37:11.681Z,70.40
2019-04-28T23:39:44.307Z,70.60
2019-04-28T23:42:20.151Z,70.80
2019-04-28T23:44:49.821Z,70.90
2019-04-28T23:47:19.580Z,71.00
2019-04-28T23:49:49.278Z,71.40
2019-04-28T23:52:29.142Z,71.50
2019-04-28T23:55:00.832Z,71.70
2019-04-28T23:57:30.681Z,73.40
